createdAt,value
2023-04-23T00:00:54.928Z,16.30
2023-04-23T00:03:23.590Z,16.30
2023-04-23T00:05:52.834Z,16.30
2023-04-23T00:08:22.364Z,16.30
2023-04-23T00:10:50.934Z,16.30
2023-04-23T00:13:19.137Z,16.40
2023-04-23T00:15:48.210Z,16.40
2023-04-23T00:18:17.039Z,16.40
2023-04-23T00:20:48.177Z,16.40
2023-04-23T00:23:16.200Z,16.30
2023-04-23T00:25:49.727Z,16.30
2023-04-23T00:28:18.738Z,16.20
2023-04-23T00:30:47.644Z,16.20
2023-04-23T00:33:15.793Z,16.20
2023-04-23T00:35:43.862Z,16.20
2023-04-23T00:38:11.904Z,16.20
2023-04-23T00:40:39.957Z,16.20
2023-04-23T00:43:09.886Z,16.20
2023-04-23T00:45:38.101Z,16.30
2023-04-23T00:48:06.179Z,16.30
2023-04-23T00:50:34.210Z,16.30
2023-04-23T00:53:02.260Z,16.30
2023-04-23T00:55:30.369Z,16.30
2023-04-23T00:57:58.410Z,16.30
2023-04-23T01:00:28.111Z,16.20
2023-04-23T01:02:56.249Z,16.20
2023-04-23T01:05:24.588Z,16.20
2023-04-23T01:07:52.609Z,16.20
2023-04-23T01:10:21.433Z,16.20
2023-04-23T01:12:49.437Z,16.30
2023-04-23T01:15:17.636Z,16.30
2023-04-23T01:17:47.335Z,16.30
2023-04-23T01:20:15.388Z,16.30
2023-04-23T01:22:44.740Z,16.30
2023-04-23T01:25:12.736Z,16.30
2023-04-23T01:27:41.002Z,16.20
2023-04-23T01:30:09.932Z,16.20
2023-04-23T01:32:37.983Z,16.20
2023-04-23T01:35:07.243Z,16.20
2023-04-23T01:37:35.246Z,16.20
2023-04-23T01:40:05.171Z,16.20
2023-04-23T01:42:33.332Z,16.30
2023-04-23T01:45:01.372Z,16.20
2023-04-23T01:47:29.423Z,16.30
2023-04-23T01:49:57.444Z,16.30
2023-04-23T01:52:28.578Z,16.30
2023-04-23T01:54:56.728Z,16.30
2023-04-23T01:57:26.720Z,16.20
2023-04-23T01:59:55.423Z,16.20
2023-04-23T02:02:23.736Z,16.20
2023-04-23T02:04:52.917Z,16.20
2023-04-23T02:07:20.961Z,16.20
2023-04-23T02:09:48.993Z,16.20
2023-04-23T02:12:17.090Z,16.20
2023-04-23T02:14:46.492Z,16.20
2023-04-23T02:17:14.544Z,16.20
2023-04-23T02:19:42.947Z,16.20
2023-04-23T02:22:10.981Z,16.30
2023-04-23T02:24:39.242Z,16.20
2023-04-23T02:27:07.609Z,16.20
2023-04-23T02:29:36.851Z,16.10
2023-04-23T02:32:06.651Z,16.10
2023-04-23T02:34:34.699Z,16.00
2023-04-23T02:37:04.958Z,16.00
2023-04-23T02:39:33.028Z,16.10
2023-04-23T02:42:01.971Z,16.10
2023-04-23T02:44:29.985Z,16.10
2023-04-23T02:46:58.140Z,16.10
2023-04-23T02:49:27.607Z,16.20
2023-04-23T02:51:55.702Z,16.20
2023-04-23T02:54:23.905Z,16.20
2023-04-23T02:56:52.035Z,16.20
2023-04-23T02:59:20.078Z,16.20
2023-04-23T03:01:48.304Z,16.10
2023-04-23T03:04:16.603Z,16.10
2023-04-23T03:06:46.123Z,16.10
2023-04-23T03:09:14.167Z,16.10
2023-04-23T03:11:42.176Z,16.20
2023-04-23T03:14:10.223Z,16.20
2023-04-23T03:16:38.289Z,16.20
2023-04-23T03:19:06.349Z,16.20
2023-04-23T03:21:34.421Z,16.20
2023-04-23T03:24:03.872Z,16.20
2023-04-23T03:26:31.920Z,16.20
2023-04-23T03:29:00.003Z,16.20
2023-04-23T03:31:28.039Z,16.10
2023-04-23T03:33:56.143Z,16.10
2023-04-23T03:36:24.167Z,16.10
2023-04-23T03:38:52.744Z,16.10
2023-04-23T03:41:22.169Z,16.20
2023-04-23T03:43:50.218Z,16.20
2023-04-23T03:46:18.337Z,16.20
2023-04-23T03:48:46.458Z,16.20
2023-04-23T03:51:14.568Z,16.20
2023-04-23T03:53:42.627Z,16.20
2023-04-23T03:56:10.709Z,16.20
2023-04-23T03:58:40.204Z,16.10
2023-04-23T04:01:08.508Z,16.10
2023-04-23T04:03:37.042Z,16.10
2023-04-23T04:06:05.921Z,16.10
2023-04-23T04:08:33.976Z,16.20
2023-04-23T04:11:02.039Z,16.20
2023-04-23T04:13:30.083Z,16.20
2023-04-23T04:15:59.533Z,16.20
2023-04-23T04:18:27.624Z,16.20
2023-04-23T04:20:55.761Z,16.20
2023-04-23T04:23:23.814Z,16.20
2023-04-23T04:25:54.655Z,16.10
2023-04-23T04:28:22.919Z,16.10
2023-04-23T04:30:51.019Z,16.10
2023-04-23T04:33:20.423Z,16.00
2023-04-23T04:35:49.656Z,16.00
2023-04-23T04:38:18.457Z,16.00
2023-04-23T04:40:46.567Z,16.00
2023-04-23T04:43:16.687Z,16.10
2023-04-23T04:45:45.059Z,16.10
2023-04-23T04:48:13.502Z,16.10
2023-04-23T04:50:42.907Z,16.10
2023-04-23T04:53:10.944Z,16.10
2023-04-23T04:55:39.019Z,16.20
2023-04-23T04:58:07.120Z,16.20
2023-04-23T05:00:35.392Z,16.10
2023-04-23T05:03:03.829Z,16.10
2023-04-23T05:05:33.627Z,16.10
2023-04-23T05:08:03.191Z,16.10
2023-04-23T05:10:31.364Z,16.10
2023-04-23T05:12:59.441Z,16.10
2023-04-23T05:15:27.601Z,16.20
2023-04-23T05:17:55.934Z,16.20
2023-04-23T05:20:24.484Z,16.20
2023-04-23T05:22:52.571Z,16.20
2023-04-23T05:25:22.023Z,16.20
2023-04-23T05:27:50.056Z,16.20
2023-04-23T05:30:18.130Z,16.10
2023-04-23T05:32:46.199Z,16.10
2023-04-23T05:35:14.266Z,16.10
2023-04-23T05:37:42.380Z,16.10
2023-04-23T05:40:11.247Z,16.10
2023-04-23T05:42:40.671Z,16.10
2023-04-23T05:45:09.905Z,16.10
2023-04-23T05:47:38.074Z,16.20
2023-04-23T05:50:07.397Z,16.20
2023-04-23T05:52:37.379Z,16.20
2023-04-23T05:55:06.197Z,16.20
2023-04-23T05:57:34.257Z,16.10
2023-04-23T06:00:09.807Z,16.10
2023-04-23T06:02:38.065Z,16.10
2023-04-23T06:05:08.105Z,16.10
2023-04-23T06:07:36.345Z,16.10
2023-04-23T06:10:04.961Z,16.20
2023-04-23T06:12:33.710Z,16.20
2023-04-23T06:15:03.175Z,16.20
2023-04-23T06:17:31.298Z,16.20
2023-04-23T06:19:59.404Z,16.20
2023-04-23T06:22:27.499Z,16.20
2023-04-23T06:24:55.557Z,16.20
2023-04-23T06:27:23.710Z,16.20
2023-04-23T06:29:51.850Z,16.10
2023-04-23T06:32:22.238Z,16.10
2023-04-23T06:35:00.118Z,16.00
2023-04-23T06:37:30.838Z,16.00
2023-04-23T06:39:59.491Z,16.00
2023-04-23T06:42:27.605Z,16.10
2023-04-23T06:44:56.565Z,16.10
2023-04-23T06:47:26.029Z,16.10
2023-04-23T06:49:54.082Z,16.10
2023-04-23T06:52:22.121Z,16.20
2023-04-23T06:54:50.270Z,16.20
2023-04-23T06:57:18.325Z,16.20
2023-04-23T06:59:46.368Z,16.20
2023-04-23T07:02:14.487Z,16.10
2023-04-23T07:04:44.452Z,16.10
2023-04-23T07:07:12.777Z,16.10
2023-04-23T07:09:40.855Z,16.10
2023-04-23T07:12:08.972Z,16.10
2023-04-23T07:14:36.998Z,16.20
2023-04-23T07:17:05.071Z,16.20
2023-04-23T07:19:33.126Z,16.30
2023-04-23T07:22:02.540Z,16.30
2023-04-23T07:24:30.839Z,16.30
2023-04-23T07:26:59.225Z,16.30
2023-04-23T07:29:27.280Z,16.30
2023-04-23T07:31:55.395Z,16.30
2023-04-23T07:34:23.494Z,16.30
2023-04-23T07:36:52.202Z,16.30
2023-04-23T07:39:21.701Z,16.30
2023-04-23T07:41:49.787Z,16.30
2023-04-23T07:44:17.856Z,16.30
2023-04-23T07:46:45.987Z,16.40
2023-04-23T07:49:14.244Z,16.40
2023-04-23T07:51:42.454Z,16.40
2023-04-23T07:54:10.718Z,16.40
2023-04-23T07:56:41.968Z,16.40
2023-04-23T07:59:11.262Z,16.40
2023-04-23T08:01:39.805Z,16.40
2023-04-23T08:04:08.294Z,16.40
2023-04-23T08:06:36.510Z,16.40
2023-04-23T08:09:06.482Z,16.40
2023-04-23T08:11:34.620Z,16.40
2023-04-23T08:14:04.075Z,16.40
2023-04-23T08:16:32.184Z,16.50
2023-04-23T08:21:32.561Z,16.50
2023-04-23T08:24:01.231Z,16.60
2023-04-23T08:26:29.333Z,16.60
2023-04-23T08:28:57.405Z,16.50
2023-04-23T08:31:27.364Z,16.50
2023-04-23T08:33:55.743Z,16.50
2023-04-23T08:36:24.511Z,16.40
2023-04-23T08:38:55.534Z,16.40
2023-04-23T08:41:24.075Z,16.50
2023-04-23T08:43:54.178Z,16.50
2023-04-23T08:46:22.278Z,16.60
2023-04-23T08:48:52.309Z,16.60
2023-04-23T08:51:20.504Z,16.70
2023-04-23T08:53:49.789Z,16.70
2023-04-23T08:56:17.833Z,16.80
2023-04-23T08:58:46.798Z,16.80
2023-04-23T09:01:14.998Z,16.90
2023-04-23T09:03:43.281Z,16.90
2023-04-23T09:06:13.004Z,16.80
2023-04-23T09:08:41.222Z,16.90
2023-04-23T09:11:09.366Z,16.80
2023-04-23T09:13:37.523Z,16.80
2023-04-23T09:16:06.631Z,16.90
2023-04-23T09:18:34.736Z,16.90
2023-04-23T09:21:04.022Z,17.00
2023-04-23T09:23:34.786Z,17.00
2023-04-23T09:26:03.102Z,17.00
2023-04-23T09:28:35.891Z,17.00
2023-04-23T09:31:04.464Z,17.00
2023-04-23T09:33:34.898Z,17.00
2023-04-23T09:36:07.113Z,16.90
2023-04-23T09:38:36.561Z,16.90
2023-04-23T09:41:23.428Z,16.90
2023-04-23T09:43:51.477Z,16.90
2023-04-23T09:46:19.519Z,17.00
2023-04-23T09:48:48.899Z,17.00
2023-04-23T09:51:16.912Z,17.00
2023-04-23T09:53:46.318Z,17.00
2023-04-23T09:56:14.464Z,17.00
2023-04-23T09:58:42.535Z,17.10
2023-04-23T10:01:10.893Z,17.00
2023-04-23T10:03:43.510Z,17.00
2023-04-23T10:06:25.931Z,17.00
2023-04-23T10:09:04.634Z,17.00
2023-04-23T10:11:32.790Z,17.00
2023-04-23T10:14:00.932Z,17.00
2023-04-23T10:16:35.795Z,17.10
2023-04-23T10:19:11.251Z,17.10
2023-04-23T10:21:50.043Z,17.10
2023-04-23T10:24:24.796Z,17.10
2023-04-23T10:26:54.020Z,17.20
2023-04-23T10:29:23.149Z,17.30
2023-04-23T10:31:51.494Z,17.30
2023-04-23T10:34:19.609Z,17.40
2023-04-23T10:36:48.241Z,17.40
2023-04-23T10:39:24.079Z,17.40
2023-04-23T10:41:59.301Z,17.40
2023-04-23T10:47:07.415Z,17.40
2023-04-23T10:49:35.477Z,17.40
2023-04-23T10:52:19.379Z,17.50
2023-04-23T10:54:50.554Z,17.50
2023-04-23T10:57:20.592Z,17.50
2023-04-23T10:59:53.121Z,17.60
2023-04-23T11:02:21.486Z,17.60
2023-04-23T11:04:56.246Z,17.60
2023-04-23T11:07:27.188Z,17.70
2023-04-23T11:09:57.704Z,17.60
2023-04-23T11:12:34.954Z,17.60
2023-04-23T11:15:11.516Z,17.60
2023-04-23T11:18:01.898Z,17.60
2023-04-23T11:20:30.140Z,17.70
2023-04-23T11:22:58.191Z,17.70
2023-04-23T11:25:26.903Z,17.70
2023-04-23T11:27:58.219Z,17.70
2023-04-23T11:30:27.042Z,17.70
2023-04-23T11:32:56.553Z,17.70
2023-04-23T11:35:28.403Z,17.70
2023-04-23T11:37:56.470Z,17.70
2023-04-23T11:40:24.787Z,17.70
2023-04-23T11:42:54.579Z,17.70
2023-04-23T11:45:24.487Z,17.70
2023-04-23T11:47:56.014Z,17.70
2023-04-23T11:50:24.938Z,17.70
2023-04-23T11:52:53.794Z,17.70
2023-04-23T11:55:21.829Z,17.70
2023-04-23T11:57:51.379Z,17.70
2023-04-23T12:00:20.588Z,17.70
2023-04-23T12:02:54.303Z,17.70
2023-04-23T12:05:23.496Z,17.70
2023-04-23T12:07:52.367Z,17.70
2023-04-23T12:10:21.260Z,17.70
2023-04-23T12:12:53.411Z,17.70
2023-04-23T12:15:21.611Z,17.60
2023-04-23T12:17:51.077Z,17.70
2023-04-23T12:20:23.570Z,17.70
2023-04-23T12:22:51.596Z,17.70
2023-04-23T12:25:23.422Z,17.70
2023-04-23T12:27:51.488Z,17.70
2023-04-23T12:30:19.635Z,17.70
2023-04-23T12:32:47.769Z,17.70
2023-04-23T12:35:15.892Z,17.60
2023-04-23T12:37:45.470Z,17.60
2023-04-23T12:40:13.558Z,17.60
2023-04-23T12:42:41.802Z,17.50
2023-04-23T12:45:10.928Z,17.50
2023-04-23T12:47:41.977Z,17.50
2023-04-23T12:50:11.049Z,17.60
2023-04-23T12:52:39.267Z,17.60
2023-04-23T12:55:09.378Z,17.60
2023-04-23T12:57:37.428Z,17.60
2023-04-23T13:00:06.533Z,17.60
2023-04-23T13:02:34.719Z,17.60
2023-04-23T13:05:02.848Z,17.60
2023-04-23T13:07:30.914Z,17.60
2023-04-23T13:09:59.712Z,17.60
2023-04-23T13:12:29.269Z,17.60
2023-04-23T13:14:58.077Z,17.60
2023-04-23T13:17:26.931Z,17.60
2023-04-23T13:19:55.581Z,17.60
2023-04-23T13:22:28.275Z,17.60
2023-04-23T13:24:56.979Z,17.60
2023-04-23T13:27:25.533Z,17.60
2023-04-23T13:29:54.982Z,17.60
2023-04-23T13:32:23.723Z,17.60
2023-04-23T13:34:51.907Z,17.60
2023-04-23T13:37:19.909Z,17.60
2023-04-23T13:39:48.248Z,17.60
2023-04-23T13:42:16.287Z,17.60
2023-04-23T13:44:44.369Z,17.60
2023-04-23T13:47:13.773Z,17.60
2023-04-23T13:49:42.181Z,17.60
2023-04-23T13:52:10.437Z,17.60
2023-04-23T13:54:39.267Z,17.60
2023-04-23T13:57:07.332Z,17.60
2023-04-23T13:59:35.420Z,17.60
2023-04-23T14:02:03.469Z,17.60
2023-04-23T14:04:32.930Z,17.60
2023-04-23T14:07:01.021Z,17.60
2023-04-23T14:09:30.138Z,17.60
2023-04-23T14:11:58.283Z,17.60
2023-04-23T14:14:26.318Z,17.60
2023-04-23T14:16:54.308Z,17.60
2023-04-23T14:19:24.562Z,17.60
2023-04-23T14:21:53.992Z,17.60
2023-04-23T14:24:24.266Z,17.60
2023-04-23T14:26:52.400Z,17.60
2023-04-23T14:29:24.691Z,17.60
2023-04-23T14:31:52.767Z,17.70
2023-04-23T14:34:21.207Z,17.60
2023-04-23T14:36:49.916Z,17.60
2023-04-23T14:39:19.564Z,17.50
2023-04-23T14:41:47.799Z,17.50
2023-04-23T14:44:15.859Z,17.50
2023-04-23T14:46:44.394Z,17.50
2023-04-23T14:49:12.609Z,17.60
2023-04-23T14:51:41.268Z,17.60
2023-04-23T14:54:09.420Z,17.60
2023-04-23T14:56:38.839Z,17.60
2023-04-23T14:59:06.867Z,17.60
2023-04-23T15:01:35.171Z,17.60
2023-04-23T15:04:03.321Z,17.60
2023-04-23T15:06:31.433Z,17.60
2023-04-23T15:08:59.522Z,17.60
2023-04-23T15:11:27.542Z,17.60
2023-04-23T15:14:03.656Z,17.60
2023-04-23T15:16:46.708Z,17.60
2023-04-23T15:19:17.896Z,17.60
2023-04-23T15:21:46.570Z,17.60
2023-04-23T15:24:14.822Z,17.60
2023-04-23T15:26:42.935Z,17.60
2023-04-23T15:29:13.499Z,17.70
2023-04-23T15:31:42.157Z,17.70
2023-04-23T15:34:11.612Z,17.70
2023-04-23T15:36:39.697Z,17.70
2023-04-23T15:39:09.088Z,17.70
2023-04-23T15:41:40.145Z,17.60
2023-04-23T15:44:10.833Z,17.60
2023-04-23T15:46:40.492Z,17.60
2023-04-23T15:49:08.739Z,17.60
2023-04-23T15:51:36.911Z,17.60
2023-04-23T15:54:08.254Z,17.60
2023-04-23T15:56:37.075Z,17.60
2023-04-23T15:59:05.263Z,17.60
2023-04-23T16:01:33.640Z,17.60
2023-04-23T16:06:34.167Z,17.70
2023-04-23T16:09:03.770Z,17.60
2023-04-23T16:11:31.824Z,17.60
2023-04-23T16:13:59.895Z,17.60
2023-04-23T16:16:28.024Z,17.60
2023-04-23T16:18:57.144Z,17.60
2023-04-23T16:21:28.107Z,17.60
2023-04-23T16:23:56.984Z,17.60
2023-04-23T16:26:25.096Z,17.60
2023-04-23T16:29:05.814Z,17.60
2023-04-23T16:31:41.400Z,17.60
2023-04-23T16:34:09.483Z,17.50
2023-04-23T16:36:38.932Z,17.50
2023-04-23T16:39:07.020Z,17.50
2023-04-23T16:41:35.039Z,17.40
2023-04-23T16:44:03.120Z,17.40
2023-04-23T16:46:31.852Z,17.40
2023-04-23T16:49:00.341Z,17.40
2023-04-23T16:51:29.458Z,17.40
2023-04-23T16:53:58.959Z,17.50
2023-04-23T16:56:27.103Z,17.40
2023-04-23T16:58:55.174Z,17.50
2023-04-23T17:01:23.525Z,17.50
2023-04-23T17:03:51.769Z,17.50
2023-04-23T17:06:24.774Z,17.50
2023-04-23T17:08:52.850Z,17.50
2023-04-23T17:11:23.074Z,17.50
2023-04-23T17:13:51.394Z,17.40
2023-04-23T17:16:19.519Z,17.40
2023-04-23T17:18:47.707Z,17.40
2023-04-23T17:21:15.855Z,17.40
2023-04-23T17:23:43.935Z,17.40
2023-04-23T17:26:12.036Z,17.40
2023-04-23T17:28:41.603Z,17.40
2023-04-23T17:31:09.772Z,17.50
2023-04-23T17:33:38.719Z,17.40
2023-04-23T17:36:06.867Z,17.50
2023-04-23T17:38:34.921Z,17.40
2023-04-23T17:41:03.440Z,17.40
2023-04-23T17:43:35.981Z,17.40
2023-04-23T17:46:05.652Z,17.40
2023-04-23T17:48:33.926Z,17.40
2023-04-23T17:51:02.090Z,17.40
2023-04-23T17:53:30.867Z,17.40
2023-04-23T17:56:02.897Z,17.40
2023-04-23T17:58:31.464Z,17.40
2023-04-23T18:00:59.606Z,17.40
2023-04-23T18:03:30.389Z,17.40
2023-04-23T18:05:58.579Z,17.40
2023-04-23T18:08:27.059Z,17.30
2023-04-23T18:10:55.316Z,17.30
2023-04-23T18:13:23.552Z,17.30
2023-04-23T18:15:51.788Z,17.30
2023-04-23T18:18:21.733Z,17.30
2023-04-23T18:20:51.888Z,17.30
2023-04-23T18:23:22.336Z,17.30
2023-04-23T18:25:50.625Z,17.30
2023-04-23T18:28:18.706Z,17.30
2023-04-23T18:30:46.987Z,17.40
2023-04-23T18:33:26.120Z,17.30
2023-04-23T18:35:58.484Z,17.30
2023-04-23T18:38:27.104Z,17.30
2023-04-23T18:40:55.179Z,17.20
2023-04-23T18:43:23.237Z,17.10
2023-04-23T18:45:51.577Z,17.10
2023-04-23T18:48:44.837Z,17.10
2023-04-23T18:51:21.431Z,17.10
2023-04-23T18:53:49.793Z,17.20
2023-04-23T18:56:17.888Z,17.20
2023-04-23T18:58:45.920Z,17.20
2023-04-23T19:01:14.444Z,17.20
2023-04-23T19:03:42.939Z,17.20
2023-04-23T19:06:11.111Z,17.20
2023-04-23T19:08:42.355Z,17.30
2023-04-23T19:11:10.478Z,17.20
2023-04-23T19:13:38.843Z,17.10
2023-04-23T19:16:06.937Z,17.10
2023-04-23T19:18:35.267Z,17.10
2023-04-23T19:21:04.484Z,17.20
2023-04-23T19:23:32.581Z,17.20
2023-04-23T19:26:03.039Z,17.20
2023-04-23T19:28:31.224Z,17.20
2023-04-23T19:30:59.350Z,17.20
2023-04-23T19:33:27.577Z,17.20
2023-04-23T19:35:55.661Z,17.20
2023-04-23T19:38:23.728Z,17.20
2023-04-23T19:40:52.258Z,17.20
2023-04-23T19:43:21.737Z,17.10
2023-04-23T19:45:49.784Z,17.10
2023-04-23T19:48:18.054Z,17.10
2023-04-23T19:50:46.196Z,17.10
2023-04-23T19:53:14.302Z,17.10
2023-04-23T19:55:42.402Z,17.10
2023-04-23T19:58:10.459Z,17.10
2023-04-23T20:00:41.668Z,17.20
2023-04-23T20:03:10.208Z,17.20
2023-04-23T20:05:42.271Z,17.20
2023-04-23T20:08:15.466Z,17.20
2023-04-23T20:10:43.693Z,17.10
2023-04-23T20:13:11.740Z,17.10
2023-04-23T20:15:41.173Z,17.10
2023-04-23T20:18:09.421Z,17.10
2023-04-23T20:20:37.579Z,17.10
2023-04-23T20:23:05.768Z,17.10
2023-04-23T20:25:36.393Z,17.10
2023-04-23T20:28:04.517Z,17.10
2023-04-23T20:30:32.572Z,17.10
2023-04-23T20:33:03.289Z,17.20
2023-04-23T20:35:31.955Z,17.20
2023-04-23T20:38:00.871Z,17.10
2023-04-23T20:40:29.116Z,17.00
2023-04-23T20:42:58.607Z,17.00
2023-04-23T20:45:26.732Z,16.90
2023-04-23T20:47:57.360Z,16.90
2023-04-23T20:50:26.930Z,16.90
2023-04-23T20:52:54.971Z,16.90
2023-04-23T20:55:23.088Z,16.90
2023-04-23T20:57:51.141Z,17.00
2023-04-23T21:00:20.425Z,17.00
2023-04-23T21:02:48.599Z,17.00
2023-04-23T21:05:16.749Z,17.10
2023-04-23T21:07:46.199Z,17.00
2023-04-23T21:10:14.271Z,17.10
2023-04-23T21:12:43.422Z,17.10
2023-04-23T21:15:12.633Z,17.00
2023-04-23T21:17:40.695Z,17.00
2023-04-23T21:20:09.995Z,16.90
2023-04-23T21:22:38.058Z,17.00
2023-04-23T21:25:08.229Z,17.00
2023-04-23T21:27:36.415Z,17.00
2023-04-23T21:30:06.920Z,17.00
2023-04-23T21:32:35.001Z,17.00
2023-04-23T21:35:03.067Z,17.00
2023-04-23T21:37:33.331Z,17.10
2023-04-23T21:40:01.387Z,17.10
2023-04-23T21:42:30.812Z,17.00
2023-04-23T21:44:58.882Z,17.00
2023-04-23T21:47:26.969Z,16.90
2023-04-23T21:49:55.088Z,16.90
2023-04-23T21:52:23.138Z,16.90
2023-04-23T21:54:51.202Z,17.00
2023-04-23T21:57:19.225Z,17.00
2023-04-23T21:59:48.722Z,17.00
2023-04-23T22:02:17.193Z,17.00
2023-04-23T22:04:45.538Z,17.00
2023-04-23T22:07:13.725Z,17.00
2023-04-23T22:09:42.082Z,17.00
2023-04-23T22:12:10.332Z,16.90
2023-04-23T22:14:38.389Z,16.90
2023-04-23T22:17:09.197Z,16.90
2023-04-23T22:19:37.301Z,16.90
2023-04-23T22:22:05.367Z,16.90
2023-04-23T22:24:33.441Z,16.90
2023-04-23T22:27:02.009Z,16.90
2023-04-23T22:29:30.155Z,17.00
2023-04-23T22:31:58.258Z,17.00
2023-04-23T22:34:27.748Z,17.00
2023-04-23T22:36:55.830Z,17.00
2023-04-23T22:39:23.875Z,16.90
2023-04-23T22:41:51.950Z,16.80
2023-04-23T22:44:20.570Z,16.80
2023-04-23T22:46:48.620Z,16.80
2023-04-23T22:49:18.322Z,16.70
2023-04-23T22:51:47.782Z,16.70
2023-04-23T22:54:15.817Z,16.70
2023-04-23T22:56:44.029Z,16.70
2023-04-23T22:59:13.502Z,16.80
2023-04-23T23:01:41.634Z,16.80
2023-04-23T23:04:09.929Z,16.90
2023-04-23T23:06:38.002Z,16.90
2023-04-23T23:09:07.408Z,16.90
2023-04-23T23:11:35.536Z,16.90
2023-04-23T23:14:04.361Z,16.90
2023-04-23T23:16:32.406Z,16.80
2023-04-23T23:19:00.423Z,16.80
2023-04-23T23:21:28.492Z,16.80
2023-04-23T23:23:56.471Z,16.80
2023-04-23T23:26:25.892Z,16.80
2023-04-23T23:28:53.908Z,16.80
2023-04-23T23:31:25.970Z,16.80
2023-04-23T23:33:54.162Z,16.90
2023-04-23T23:36:26.006Z,16.90
2023-04-23T23:38:54.035Z,16.90
2023-04-23T23:41:22.191Z,16.90
2023-04-23T23:43:51.640Z,16.80
2023-04-23T23:46:19.974Z,16.80
2023-04-23T23:48:48.207Z,16.70
2023-04-23T23:51:16.327Z,16.80
2023-04-23T23:53:44.840Z,16.80
2023-04-23T23:56:13.002Z,16.80
2023-04-23T23:58:41.027Z,16.90
